createdAt,value
2022-10-11T00:01:23.548Z,15.14
2022-10-11T00:03:50.188Z,15.19
2022-10-11T00:06:16.897Z,14.98
2022-10-11T00:08:43.525Z,15.46
2022-10-11T00:11:11.087Z,15.77
2022-10-11T00:13:37.662Z,15.93
2022-10-11T00:16:12.408Z,15.98
2022-10-11T00:18:39.889Z,16.18
2022-10-11T00:21:09.753Z,16.12
2022-10-11T00:23:36.600Z,14.86
2022-10-11T00:26:07.290Z,15.02
2022-10-11T00:28:35.310Z,14.94
2022-10-11T00:31:03.821Z,15.00
2022-10-11T00:33:30.618Z,14.49
2022-10-11T00:36:00.010Z,14.26
2022-10-11T00:38:26.798Z,14.85
2022-10-11T00:40:54.035Z,14.70
2022-10-11T00:43:24.941Z,15.32
2022-10-11T00:45:57.634Z,15.56
2022-10-11T00:48:29.644Z,15.10
2022-10-11T00:51:01.136Z,14.46
2022-10-11T00:53:31.557Z,14.56
2022-10-11T00:56:25.560Z,14.64
2022-10-11T00:58:55.280Z,14.43
2022-10-11T01:01:22.055Z,13.90
2022-10-11T01:03:49.306Z,14.35
2022-10-11T01:06:16.128Z,14.01
2022-10-11T01:08:44.307Z,13.93
2022-10-11T01:11:17.310Z,14.09
2022-10-11T01:14:02.614Z,13.78
2022-10-11T01:16:38.164Z,13.94
2022-10-11T01:19:06.140Z,14.73
2022-10-11T01:22:11.835Z,15.03
2022-10-11T01:24:44.608Z,14.69
2022-10-11T01:27:37.486Z,14.76
2022-10-11T01:30:18.810Z,14.41
2022-10-11T01:33:00.651Z,14.78
2022-10-11T01:35:41.255Z,14.82
2022-10-11T01:38:22.486Z,15.16
2022-10-11T01:40:57.471Z,14.45
2022-10-11T01:43:26.987Z,15.12
2022-10-11T01:45:57.531Z,14.87
2022-10-11T01:48:25.011Z,14.84
2022-10-11T01:50:56.647Z,13.71
2022-10-11T01:53:45.858Z,14.22
2022-10-11T01:56:50.345Z,13.92
2022-10-11T01:59:22.206Z,13.93
2022-10-11T02:02:01.879Z,13.51
2022-10-11T02:04:45.162Z,13.58
2022-10-11T02:07:43.509Z,13.96
2022-10-11T02:10:26.253Z,13.94
2022-10-11T02:13:15.516Z,14.17
2022-10-11T02:15:47.666Z,14.03
2022-10-11T02:18:19.379Z,13.21
2022-10-11T02:20:49.401Z,12.72
2022-10-11T02:23:39.141Z,13.37
2022-10-11T02:26:09.634Z,13.60
2022-10-11T02:28:41.934Z,13.65
2022-10-11T02:31:12.413Z,13.75
2022-10-11T02:33:53.388Z,14.24
2022-10-11T02:36:30.166Z,14.26
2022-10-11T02:39:06.893Z,14.58
2022-10-11T02:41:41.424Z,14.51
2022-10-11T02:44:14.576Z,14.19
2022-10-11T02:46:44.854Z,14.57
2022-10-11T02:49:13.029Z,14.10
2022-10-11T02:51:39.721Z,14.76
2022-10-11T02:54:06.403Z,14.88
2022-10-11T02:56:32.979Z,15.00
2022-10-11T02:58:59.571Z,14.62
2022-10-11T03:01:26.352Z,14.66
2022-10-11T03:03:53.076Z,14.97
2022-10-11T03:06:19.676Z,14.92
2022-10-11T03:08:46.305Z,15.20
2022-10-11T03:11:12.914Z,14.56
2022-10-11T03:13:39.505Z,14.94
2022-10-11T03:16:06.088Z,14.64
2022-10-11T03:18:32.679Z,14.50
2022-10-11T03:20:59.272Z,14.21
2022-10-11T03:23:25.922Z,14.63
2022-10-11T03:25:52.525Z,14.22
2022-10-11T03:28:20.435Z,14.24
2022-10-11T03:30:49.887Z,14.54
2022-10-11T03:33:17.035Z,14.01
2022-10-11T03:35:48.672Z,13.98
2022-10-11T03:38:19.346Z,14.48
2022-10-11T03:40:46.220Z,14.31
2022-10-11T03:43:13.037Z,13.88
2022-10-11T03:45:39.722Z,14.01
2022-10-11T03:48:06.566Z,14.07
2022-10-11T03:50:33.273Z,14.50
2022-10-11T03:53:00.155Z,14.83
2022-10-11T03:55:26.892Z,14.97
2022-10-11T03:57:53.526Z,14.87
2022-10-11T04:00:20.644Z,14.62
2022-10-11T04:02:47.319Z,14.36
2022-10-11T04:05:14.662Z,14.81
2022-10-11T04:07:41.361Z,14.14
2022-10-11T04:10:08.706Z,13.67
2022-10-11T04:12:37.492Z,13.54
2022-10-11T04:15:05.799Z,14.25
2022-10-11T04:17:32.506Z,14.14
2022-10-11T04:19:59.089Z,13.81
2022-10-11T04:22:25.692Z,14.16
2022-10-11T04:24:52.397Z,13.64
2022-10-11T04:27:18.986Z,13.16
2022-10-11T04:29:45.566Z,13.12
2022-10-11T04:32:12.195Z,13.17
2022-10-11T04:34:38.838Z,13.50
2022-10-11T04:37:05.564Z,13.69
2022-10-11T04:39:32.157Z,13.74
2022-10-11T04:41:58.797Z,14.06
2022-10-11T04:44:25.375Z,13.82
2022-10-11T04:46:51.970Z,13.62
2022-10-11T04:49:18.619Z,13.12
2022-10-11T04:51:45.255Z,13.02
2022-10-11T04:54:12.132Z,12.81
2022-10-11T04:56:38.784Z,13.06
2022-10-11T04:59:05.384Z,13.02
2022-10-11T05:01:32.004Z,13.35
2022-10-11T05:03:58.997Z,13.43
2022-10-11T05:06:25.554Z,13.46
2022-10-11T05:08:52.412Z,13.33
2022-10-11T05:11:19.001Z,12.90
2022-10-11T05:13:46.528Z,12.74
2022-10-11T05:16:15.265Z,13.21
2022-10-11T05:18:42.943Z,13.10
2022-10-11T05:21:19.016Z,12.95
2022-10-11T05:23:48.312Z,12.93
2022-10-11T05:26:15.832Z,13.14
2022-10-11T05:28:42.617Z,13.23
2022-10-11T05:31:09.685Z,13.98
2022-10-11T05:33:36.919Z,14.23
2022-10-11T05:36:04.230Z,14.26
2022-10-11T05:38:31.079Z,13.06
2022-10-11T05:41:02.566Z,12.52
2022-10-11T05:43:30.438Z,12.63
2022-10-11T05:45:58.145Z,12.97
2022-10-11T05:48:24.815Z,12.21
2022-10-11T05:50:51.396Z,12.56
2022-10-11T05:53:18.499Z,12.14
2022-10-11T05:55:45.844Z,13.13
2022-10-11T05:58:15.024Z,13.54
2022-10-11T06:00:41.827Z,13.15
2022-10-11T06:03:12.682Z,13.19
2022-10-11T06:05:42.105Z,13.62
2022-10-11T06:08:09.790Z,14.00
2022-10-11T06:10:38.640Z,14.26
2022-10-11T06:13:06.141Z,14.04
2022-10-11T06:15:33.860Z,13.67
2022-10-11T06:18:00.682Z,13.40
2022-10-11T06:20:27.407Z,13.67
2022-10-11T06:22:54.062Z,13.76
2022-10-11T06:25:21.102Z,13.87
2022-10-11T06:27:47.917Z,14.17
2022-10-11T06:30:14.575Z,14.49
2022-10-11T06:32:41.217Z,14.65
2022-10-11T06:35:08.320Z,14.71
2022-10-11T06:37:34.958Z,14.35
2022-10-11T06:40:01.573Z,14.08
2022-10-11T06:42:28.227Z,14.49
2022-10-11T06:44:55.102Z,14.42
2022-10-11T06:47:21.766Z,14.11
2022-10-11T06:49:48.569Z,14.64
2022-10-11T06:52:15.202Z,14.82
2022-10-11T06:54:44.881Z,14.62
2022-10-11T06:57:12.017Z,14.32
2022-10-11T06:59:38.739Z,14.65
2022-10-11T07:02:05.405Z,14.71
2022-10-11T07:04:32.055Z,14.23
2022-10-11T07:06:58.685Z,14.91
2022-10-11T07:09:25.386Z,15.03
2022-10-11T07:11:52.000Z,15.05
2022-10-11T07:14:18.581Z,15.39
2022-10-11T07:16:45.181Z,15.59
2022-10-11T07:19:11.743Z,15.80
2022-10-11T07:21:38.635Z,15.67
2022-10-11T07:24:05.866Z,15.71
2022-10-11T07:26:38.314Z,16.03
2022-10-11T07:29:08.146Z,16.25
2022-10-11T07:31:40.640Z,16.80
2022-10-11T07:34:08.252Z,17.71
2022-10-11T07:36:35.324Z,18.54
2022-10-11T07:39:05.011Z,18.83
2022-10-11T07:41:31.666Z,18.76
2022-10-11T07:43:58.321Z,19.08
2022-10-11T07:46:24.927Z,19.01
2022-10-11T07:48:51.730Z,19.22
2022-10-11T07:51:23.622Z,19.37
2022-10-11T07:53:53.529Z,19.62
2022-10-11T07:56:23.398Z,19.53
2022-10-11T07:58:52.406Z,20.00
2022-10-11T08:01:22.044Z,19.98
2022-10-11T08:03:49.570Z,19.46
2022-10-11T08:06:19.544Z,19.82
2022-10-11T08:08:46.870Z,19.46
2022-10-11T08:11:23.384Z,19.57
2022-10-11T08:13:50.339Z,19.64
2022-10-11T08:16:17.151Z,19.16
2022-10-11T08:18:43.764Z,19.41
2022-10-11T08:21:12.555Z,19.40
2022-10-11T08:23:39.707Z,19.55
2022-10-11T08:26:07.151Z,19.54
2022-10-11T08:28:34.209Z,19.83
2022-10-11T08:31:01.179Z,19.90
2022-10-11T08:33:28.619Z,19.34
2022-10-11T08:35:55.522Z,18.38
2022-10-11T08:38:22.334Z,18.44
2022-10-11T08:40:56.033Z,18.06
2022-10-11T08:43:31.797Z,17.42
2022-10-11T08:46:01.609Z,17.74
2022-10-11T08:48:49.945Z,17.97
2022-10-11T08:51:29.124Z,17.90
2022-10-11T08:54:21.852Z,18.07
2022-10-11T08:56:51.127Z,17.44
2022-10-11T08:59:41.921Z,17.21
2022-10-11T09:02:49.272Z,17.24
2022-10-11T09:05:18.997Z,17.36
2022-10-11T09:07:45.585Z,17.37
2022-10-11T09:10:31.577Z,17.04
2022-10-11T09:13:30.342Z,17.20
2022-10-11T09:16:08.949Z,17.63
2022-10-11T09:19:03.467Z,17.56
2022-10-11T09:21:45.695Z,17.83
2022-10-11T09:24:26.463Z,17.81
2022-10-11T09:27:19.324Z,17.73
2022-10-11T09:30:01.394Z,17.36
2022-10-11T09:32:45.811Z,17.31
2022-10-11T09:35:16.825Z,17.18
2022-10-11T09:38:25.214Z,16.95
2022-10-11T09:41:16.481Z,16.78
2022-10-11T09:43:50.726Z,16.84
2022-10-11T09:46:26.346Z,17.24
2022-10-11T09:48:56.414Z,17.17
2022-10-11T09:51:27.447Z,17.58
2022-10-11T09:54:00.474Z,17.32
2022-10-11T09:56:31.483Z,17.73
2022-10-11T09:59:19.357Z,17.38
2022-10-11T10:01:45.988Z,17.54
2022-10-11T10:04:16.343Z,17.84
2022-10-11T10:06:43.344Z,17.64
2022-10-11T10:09:28.207Z,17.67
2022-10-11T10:11:56.944Z,18.04
2022-10-11T10:14:31.234Z,17.80
2022-10-11T10:17:16.343Z,17.81
2022-10-11T10:19:54.421Z,18.22
2022-10-11T10:22:29.988Z,18.04
2022-10-11T10:25:01.826Z,17.80
2022-10-11T10:27:32.209Z,18.07
2022-10-11T10:30:07.714Z,18.03
2022-10-11T10:32:48.351Z,17.78
2022-10-11T10:35:32.389Z,17.78
2022-10-11T10:38:25.571Z,18.22
2022-10-11T10:41:06.097Z,17.82
2022-10-11T10:43:38.400Z,18.07
2022-10-11T10:46:37.104Z,18.05
2022-10-11T10:49:41.122Z,17.84
2022-10-11T10:52:01.946Z,18.29
2022-10-11T10:54:40.767Z,18.35
2022-10-11T10:57:29.044Z,18.24
2022-10-11T11:00:11.553Z,18.08
2022-10-11T11:02:56.568Z,18.10
2022-10-11T11:05:23.402Z,18.33
2022-10-11T11:07:54.903Z,18.70
2022-10-11T11:10:27.444Z,18.84
2022-10-11T11:12:54.032Z,18.95
2022-10-11T11:15:33.086Z,18.73
2022-10-11T11:18:25.326Z,18.74
2022-10-11T11:20:54.615Z,18.71
2022-10-11T11:23:24.518Z,18.67
2022-10-11T11:26:21.914Z,19.04
2022-10-11T11:29:07.005Z,18.67
2022-10-11T11:31:46.679Z,18.56
2022-10-11T11:34:28.771Z,18.17
2022-10-11T11:37:03.008Z,18.69
2022-10-11T11:39:32.681Z,18.65
2022-10-11T11:42:18.094Z,18.96
2022-10-11T11:44:50.411Z,18.91
2022-10-11T11:47:32.907Z,18.87
2022-10-11T11:50:22.326Z,18.87
2022-10-11T11:53:19.026Z,18.58
2022-10-11T11:56:04.383Z,19.24
2022-10-11T11:58:53.123Z,19.36
2022-10-11T12:01:52.472Z,19.15
2022-10-11T12:04:42.479Z,19.33
2022-10-11T12:07:17.464Z,19.01
2022-10-11T12:09:49.163Z,18.89
2022-10-11T12:12:28.539Z,19.25
2022-10-11T12:15:10.137Z,18.89
2022-10-11T12:17:55.149Z,19.12
2022-10-11T12:20:31.515Z,19.35
2022-10-11T12:22:59.665Z,19.37
2022-10-11T12:25:26.360Z,19.40
2022-10-11T12:27:56.526Z,19.42
2022-10-11T12:30:44.958Z,19.31
2022-10-11T12:33:18.032Z,19.48
2022-10-11T12:35:55.538Z,19.30
2022-10-11T12:38:27.960Z,18.73
2022-10-11T12:41:19.508Z,18.89
2022-10-11T12:43:49.090Z,19.51
2022-10-11T12:46:28.136Z,19.71
2022-10-11T12:49:31.580Z,19.98
2022-10-11T12:52:00.201Z,20.10
2022-10-11T12:54:33.309Z,20.04
2022-10-11T12:57:12.165Z,20.60
2022-10-11T12:59:45.503Z,20.02
2022-10-11T13:02:30.123Z,20.06
2022-10-11T13:05:19.754Z,20.31
2022-10-11T13:07:48.064Z,20.09
2022-10-11T13:10:20.096Z,19.57
2022-10-11T13:12:49.042Z,20.15
2022-10-11T13:15:20.699Z,20.09
2022-10-11T13:17:47.754Z,19.99
2022-10-11T13:20:17.598Z,20.31
2022-10-11T13:22:47.703Z,20.41
2022-10-11T13:25:20.695Z,20.37
2022-10-11T13:27:51.043Z,20.29
2022-10-11T13:30:26.559Z,20.36
2022-10-11T13:32:54.568Z,20.66
2022-10-11T13:35:36.537Z,21.02
2022-10-11T13:38:08.300Z,20.58
2022-10-11T13:40:36.129Z,20.97
2022-10-11T13:43:05.980Z,21.14
2022-10-11T13:45:33.389Z,20.73
2022-10-11T13:48:00.356Z,20.09
2022-10-11T13:50:30.955Z,20.26
2022-10-11T13:53:22.778Z,20.57
2022-10-11T13:55:52.373Z,20.19
2022-10-11T13:58:39.145Z,20.12
2022-10-11T14:01:18.079Z,19.67
2022-10-11T14:03:52.328Z,19.95
2022-10-11T14:06:19.531Z,20.13
2022-10-11T14:08:51.638Z,20.78
2022-10-11T14:11:35.220Z,20.88
2022-10-11T14:14:29.183Z,20.81
2022-10-11T14:16:57.832Z,20.72
2022-10-11T14:19:24.848Z,20.80
2022-10-11T14:21:53.230Z,20.98
2022-10-11T14:24:21.051Z,20.81
2022-10-11T14:26:53.859Z,20.85
2022-10-11T14:29:33.490Z,20.96
2022-10-11T14:32:08.285Z,20.90
2022-10-11T14:34:35.758Z,20.99
2022-10-11T14:37:02.589Z,20.88
2022-10-11T14:39:32.165Z,20.72
2022-10-11T14:41:59.382Z,20.64
2022-10-11T14:44:26.032Z,20.91
2022-10-11T14:46:54.921Z,20.77
2022-10-11T14:49:28.071Z,20.91
2022-10-11T14:51:58.207Z,21.13
2022-10-11T14:54:28.141Z,20.36
2022-10-11T14:56:58.542Z,20.40
2022-10-11T14:59:28.469Z,20.32
2022-10-11T15:01:55.085Z,20.62
2022-10-11T15:04:24.263Z,20.69
2022-10-11T15:06:52.869Z,20.90
2022-10-11T15:09:20.566Z,20.28
2022-10-11T15:11:49.170Z,20.42
2022-10-11T15:14:18.488Z,20.82
2022-10-11T15:16:45.183Z,20.91
2022-10-11T15:19:21.244Z,20.99
2022-10-11T15:21:47.944Z,21.02
2022-10-11T15:24:15.026Z,20.71
2022-10-11T15:26:42.233Z,20.82
2022-10-11T15:29:11.709Z,21.07
2022-10-11T15:31:39.135Z,21.02
2022-10-11T15:34:05.882Z,21.16
2022-10-11T15:36:32.489Z,20.55
2022-10-11T15:38:59.155Z,20.62
2022-10-11T15:41:25.888Z,20.33
2022-10-11T15:43:53.853Z,20.50
2022-10-11T15:46:22.580Z,20.67
2022-10-11T15:48:51.170Z,20.82
2022-10-11T15:51:18.303Z,20.78
2022-10-11T15:53:45.220Z,20.78
2022-10-11T15:56:17.215Z,20.42
2022-10-11T15:58:44.557Z,20.36
2022-10-11T16:01:18.389Z,20.19
2022-10-11T16:03:47.547Z,19.72
2022-10-11T16:06:14.356Z,20.22
2022-10-11T16:08:41.001Z,19.85
2022-10-11T16:11:09.062Z,19.94
2022-10-11T16:13:36.541Z,19.99
2022-10-11T16:16:05.776Z,18.88
2022-10-11T16:18:35.582Z,19.19
2022-10-11T16:21:07.581Z,19.24
2022-10-11T16:23:34.816Z,19.16
2022-10-11T16:26:06.412Z,19.51
2022-10-11T16:28:33.476Z,18.94
2022-10-11T16:31:00.475Z,18.74
2022-10-11T16:33:27.620Z,18.53
2022-10-11T16:35:54.233Z,18.72
2022-10-11T16:38:20.939Z,18.99
2022-10-11T16:40:47.531Z,18.37
2022-10-11T16:43:14.124Z,18.43
2022-10-11T16:45:40.725Z,18.27
2022-10-11T16:48:07.402Z,18.40
2022-10-11T16:50:39.119Z,18.18
2022-10-11T16:53:06.372Z,18.56
2022-10-11T16:55:33.125Z,19.11
2022-10-11T16:57:59.814Z,18.91
2022-10-11T17:00:26.611Z,19.05
2022-10-11T17:02:53.276Z,19.16
2022-10-11T17:05:19.897Z,18.69
2022-10-11T17:07:46.501Z,18.68
2022-10-11T17:10:13.461Z,18.16
2022-10-11T17:12:40.314Z,17.92
2022-10-11T17:15:10.623Z,17.61
2022-10-11T17:17:37.301Z,17.27
2022-10-11T17:20:04.282Z,17.27
2022-10-11T17:22:30.866Z,17.07
2022-10-11T17:24:57.669Z,16.88
2022-10-11T17:27:24.285Z,16.90
2022-10-11T17:29:50.881Z,16.90
2022-10-11T17:32:17.846Z,16.97
2022-10-11T17:34:44.579Z,16.98
2022-10-11T17:37:11.258Z,17.01
2022-10-11T17:39:37.885Z,16.89
2022-10-11T17:42:04.643Z,16.69
2022-10-11T17:44:31.297Z,16.66
2022-10-11T17:46:57.956Z,16.61
2022-10-11T17:49:24.612Z,16.80
2022-10-11T17:51:51.264Z,16.82
2022-10-11T17:54:17.900Z,16.95
2022-10-11T17:56:44.537Z,16.73
2022-10-11T17:59:16.676Z,16.76
2022-10-11T18:01:43.394Z,16.67
2022-10-11T18:04:10.026Z,16.67
2022-10-11T18:06:39.573Z,16.90
2022-10-11T18:09:06.445Z,17.00
2022-10-11T18:11:33.218Z,17.19
2022-10-11T18:14:00.351Z,17.77
2022-10-11T18:16:31.996Z,17.79
2022-10-11T18:18:59.524Z,17.86
2022-10-11T18:21:33.416Z,18.44
2022-10-11T18:24:03.000Z,18.87
2022-10-11T18:26:30.874Z,18.31
2022-10-11T18:28:58.640Z,18.34
2022-10-11T18:31:29.340Z,18.59
2022-10-11T18:33:56.093Z,18.79
2022-10-11T18:36:25.295Z,18.86
2022-10-11T18:38:54.473Z,17.98
2022-10-11T18:41:23.122Z,18.15
2022-10-11T18:43:55.099Z,17.26
2022-10-11T18:46:23.130Z,16.81
2022-10-11T18:48:52.224Z,16.83
2022-10-11T18:51:22.414Z,16.47
2022-10-11T18:53:49.216Z,16.22
2022-10-11T18:56:18.811Z,16.17
2022-10-11T18:58:45.417Z,15.95
2022-10-11T19:01:21.090Z,15.78
2022-10-11T19:03:50.906Z,15.60
2022-10-11T19:06:20.678Z,16.02
2022-10-11T19:08:50.497Z,15.89
2022-10-11T19:11:18.318Z,15.98
2022-10-11T19:13:44.960Z,15.84
2022-10-11T19:16:17.653Z,15.60
2022-10-11T19:18:44.692Z,15.90
2022-10-11T19:21:13.187Z,16.11
2022-10-11T19:23:45.223Z,16.39
2022-10-11T19:26:19.294Z,17.25
2022-10-11T19:28:47.468Z,17.49
2022-10-11T19:31:16.162Z,17.83
2022-10-11T19:33:44.829Z,18.07
2022-10-11T19:36:13.849Z,18.17
2022-10-11T19:38:44.818Z,17.77
2022-10-11T19:41:12.873Z,18.05
2022-10-11T19:43:39.502Z,18.23
2022-10-11T19:46:08.777Z,18.33
2022-10-11T19:48:39.486Z,18.38
2022-10-11T19:51:09.530Z,18.13
2022-10-11T19:53:36.464Z,16.43
2022-10-11T19:56:06.818Z,16.33
2022-10-11T19:58:33.591Z,16.31
2022-10-11T20:01:04.867Z,16.51
2022-10-11T20:03:32.393Z,16.32
2022-10-11T20:06:00.817Z,15.92
2022-10-11T20:08:28.221Z,15.43
2022-10-11T20:10:55.043Z,15.43
2022-10-11T20:13:21.923Z,15.52
2022-10-11T20:15:48.517Z,15.87
2022-10-11T20:18:15.286Z,15.91
2022-10-11T20:20:51.684Z,15.75
2022-10-11T20:23:18.896Z,15.71
2022-10-11T20:26:06.155Z,15.60
2022-10-11T20:28:34.431Z,15.46
2022-10-11T20:31:03.995Z,15.28
2022-10-11T20:33:32.437Z,15.23
2022-10-11T20:36:01.339Z,15.20
2022-10-11T20:38:29.661Z,15.44
2022-10-11T20:40:56.987Z,15.31
2022-10-11T20:43:24.607Z,15.33
2022-10-11T20:46:00.681Z,15.39
2022-10-11T20:48:28.031Z,15.42
2022-10-11T20:50:55.081Z,15.30
2022-10-11T20:53:22.292Z,15.51
2022-10-11T20:55:49.562Z,15.51
2022-10-11T20:58:16.830Z,15.37
2022-10-11T21:00:44.209Z,15.58
2022-10-11T21:03:12.025Z,16.08
2022-10-11T21:05:38.992Z,15.70
2022-10-11T21:08:07.355Z,15.79
2022-10-11T21:10:34.127Z,15.74
2022-10-11T21:13:00.787Z,15.90
2022-10-11T21:15:30.016Z,16.23
2022-10-11T21:17:57.203Z,15.87
2022-10-11T21:20:24.761Z,15.74
2022-10-11T21:22:51.452Z,15.64
2022-10-11T21:25:18.083Z,15.98
2022-10-11T21:27:44.690Z,16.49
2022-10-11T21:30:11.415Z,16.98
2022-10-11T21:32:38.229Z,17.13
2022-10-11T21:35:05.002Z,17.48
2022-10-11T21:37:32.030Z,17.66
2022-10-11T21:39:58.872Z,17.89
2022-10-11T21:42:29.420Z,17.64
2022-10-11T21:44:56.294Z,17.99
2022-10-11T21:47:22.973Z,18.25
2022-10-11T21:49:49.607Z,18.34
2022-10-11T21:52:16.240Z,17.80
2022-10-11T21:54:42.916Z,17.34
2022-10-11T21:57:09.543Z,17.87
2022-10-11T21:59:36.289Z,17.95
2022-10-11T22:02:02.976Z,16.84
2022-10-11T22:04:29.883Z,17.65
2022-10-11T22:06:56.501Z,17.86
2022-10-11T22:09:23.160Z,17.56
2022-10-11T22:11:49.791Z,17.52
2022-10-11T22:14:17.437Z,16.91
2022-10-11T22:16:44.044Z,15.75
2022-10-11T22:19:10.716Z,16.51
2022-10-11T22:21:41.285Z,15.90
2022-10-11T22:24:10.700Z,15.71
2022-10-11T22:26:37.332Z,15.73
2022-10-11T22:29:04.035Z,15.67
2022-10-11T22:31:31.249Z,15.75
2022-10-11T22:34:00.740Z,16.50
2022-10-11T22:36:29.011Z,16.56
2022-10-11T22:38:56.173Z,15.99
2022-10-11T22:41:23.699Z,15.61
2022-10-11T22:43:50.335Z,15.12
2022-10-11T22:46:16.956Z,14.85
2022-10-11T22:48:43.544Z,14.96
2022-10-11T22:51:10.193Z,15.40
2022-10-11T22:53:36.785Z,15.50
2022-10-11T22:56:03.688Z,15.60
2022-10-11T22:58:30.414Z,15.87
2022-10-11T23:00:57.062Z,15.52
2022-10-11T23:03:23.745Z,15.44
2022-10-11T23:05:55.292Z,15.33
2022-10-11T23:08:23.029Z,15.50
2022-10-11T23:10:49.792Z,15.29
2022-10-11T23:13:16.751Z,15.73
2022-10-11T23:15:43.486Z,16.02
2022-10-11T23:18:10.179Z,15.78
2022-10-11T23:20:39.032Z,15.32
2022-10-11T23:23:06.436Z,15.63
2022-10-11T23:25:33.071Z,15.60
2022-10-11T23:28:00.560Z,15.66
2022-10-11T23:30:31.393Z,15.37
2022-10-11T23:32:57.993Z,15.15
2022-10-11T23:35:24.665Z,15.33
2022-10-11T23:37:53.415Z,15.57
2022-10-11T23:40:20.043Z,15.46
2022-10-11T23:42:46.679Z,15.36
2022-10-11T23:45:13.290Z,15.64
2022-10-11T23:47:40.421Z,15.40
2022-10-11T23:50:08.089Z,15.42
2022-10-11T23:52:34.682Z,15.30
2022-10-11T23:55:01.283Z,15.32
2022-10-11T23:57:27.903Z,15.41
2022-10-11T23:59:54.495Z,15.37
